Time;durP1;ratioP1;P1;durP2;ratioP2;P2;SDS_P1;SDS_P2;PMS_P1;PMS_P2;Temp;Humidity;BMP_temperature;BMP_pressure;BME280_temperature;BME280_humidity;BME280_pressure;Samples;Min_cycle;Max_cycle;Signal;HPM_P1;HPM_P2
2022/04/07 00:02:21;;;;;;;4.88;0.98;;;12.60;92.60;;;;;;6229114;28;20046;-78
2022/04/07 00:05:23;;;;;;;2.80;0.70;;;12.50;92.00;;;;;;6229491;28;20046;-78
2022/04/07 00:08:24;;;;;;;1.63;0.80;;;12.40;91.70;;;;;;6229689;28;20054;-78
2022/04/07 00:11:26;;;;;;;2.47;1.02;;;12.40;91.50;;;;;;6228601;28;20050;-78
2022/04/07 00:14:29;;;;;;;1.88;0.63;;;12.50;91.50;;;;;;6228161;28;20069;-78
2022/04/07 00:17:31;;;;;;;1.40;0.82;;;12.50;91.10;;;;;;6229214;28;20041;-78
2022/04/07 00:20:33;;;;;;;2.13;0.60;;;12.50;91.00;;;;;;6228135;28;20052;-78
2022/04/07 00:23:35;;;;;;;1.23;0.57;;;12.60;90.90;;;;;;6228454;28;20061;-78
2022/04/07 00:26:37;;;;;;;0.85;0.60;;;12.60;90.90;;;;;;6218049;28;20054;-78
2022/04/07 00:29:40;;;;;;;1.27;0.70;;;12.70;90.90;;;;;;6204458;28;20504;-78
2022/04/07 00:32:42;;;;;;;1.00;0.45;;;12.60;90.80;;;;;;6203825;28;20053;-78
2022/04/07 00:35:44;;;;;;;0.88;0.55;;;12.60;90.50;;;;;;6204924;28;20510;-80
2022/04/07 00:38:46;;;;;;;2.42;0.60;;;12.50;90.40;;;;;;6206044;28;20054;-78
2022/04/07 00:41:48;;;;;;;0.77;0.40;;;12.50;90.30;;;;;;6204178;28;20415;-79
2022/04/07 00:44:51;;;;;;;2.15;0.40;;;12.50;90.20;;;;;;6204832;28;20096;-78
2022/04/07 00:47:53;;;;;;;0.45;0.30;;;12.50;89.90;;;;;;6203958;28;20046;-79
2022/04/07 00:50:55;;;;;;;0.45;0.17;;;12.50;89.80;;;;;;6204120;28;20042;-78
2022/04/07 00:53:57;;;;;;;0.55;0.30;;;12.50;89.50;;;;;;6203614;28;20046;-79
2022/04/07 00:57:00;;;;;;;1.13;0.20;;;12.50;89.40;;;;;;6203807;28;20125;-79
2022/04/07 01:00:05;;;;;;;0.85;0.22;;;12.50;89.30;;;;;;6204097;28;20090;-79
2022/04/07 01:03:07;;;;;;;0.40;0.20;;;12.50;89.40;;;;;;6203892;28;20058;-79
2022/04/07 01:06:09;;;;;;;3.92;0.25;;;12.40;89.30;;;;;;6203993;28;20046;-78
2022/04/07 01:09:11;;;;;;;0.38;0.17;;;12.30;89.80;;;;;;6203289;28;20053;-79
2022/04/07 01:12:13;;;;;;;0.98;0.30;;;12.20;90.10;;;;;;6204057;28;20061;-79
2022/04/07 01:15:16;;;;;;;0.40;0.22;;;12.20;90.40;;;;;;6201648;28;20394;-77
2022/04/07 01:18:18;;;;;;;1.05;0.30;;;12.30;90.30;;;;;;6201404;28;20428;-78
2022/04/07 01:21:21;;;;;;;1.98;0.28;;;12.40;90.20;;;;;;6210619;28;20052;-78
2022/04/07 01:24:30;;;;;;;1.85;0.25;;;12.30;90.00;;;;;;6226162;28;20050;-77
2022/04/07 01:27:32;;;;;;;0.93;0.40;;;12.30;90.10;;;;;;6215466;28;20512;-78
2022/04/07 01:30:34;;;;;;;0.50;0.20;;;12.20;90.30;;;;;;6223794;28;20500;-78
2022/04/07 01:33:36;;;;;;;0.43;0.20;;;12.20;89.60;;;;;;6226891;28;20053;-78
2022/04/07 01:36:40;;;;;;;0.90;0.43;;;12.30;89.10;;;;;;6227023;28;20049;-78
2022/04/07 01:39:45;;;;;;;1.98;0.30;;;12.40;88.80;;;;;;6228879;28;20081;-78
2022/04/07 01:42:47;;;;;;;0.43;0.15;;;12.50;88.40;;;;;;6228796;28;20117;-78
2022/04/07 01:45:49;;;;;;;1.10;0.63;;;12.50;87.90;;;;;;6226906;28;20052;-78
2022/04/07 01:48:52;;;;;;;1.50;0.30;;;12.60;88.20;;;;;;6228708;28;20042;-78
2022/04/07 01:51:54;;;;;;;0.82;0.28;;;12.60;89.30;;;;;;6230696;28;20050;-78
2022/04/07 01:54:59;;;;;;;1.55;0.38;;;12.30;90.90;;;;;;6231644;28;20534;-78
2022/04/07 01:58:01;;;;;;;1.70;0.40;;;11.90;91.80;;;;;;6229826;28;20054;-78
2022/04/07 02:01:03;;;;;;;3.83;0.30;;;11.60;93.00;;;;;;6228633;28;20049;-78
2022/04/07 02:04:05;;;;;;;1.17;0.38;;;11.50;93.50;;;;;;6228831;28;20189;-78
2022/04/07 02:07:07;;;;;;;0.47;0.35;;;11.40;93.80;;;;;;6230559;28;20050;-77
2022/04/07 02:10:12;;;;;;;0.88;0.35;;;11.40;93.90;;;;;;6229217;28;20416;-77
2022/04/07 02:13:14;;;;;;;2.75;0.40;;;11.30;94.30;;;;;;6229307;28;20058;-78
2022/04/07 02:16:19;;;;;;;0.70;0.30;;;11.40;94.10;;;;;;6228779;28;20500;-77
2022/04/07 02:19:20;;;;;;;1.67;0.68;;;11.30;93.90;;;;;;6228042;28;20050;-77
2022/04/07 02:22:22;;;;;;;0.65;0.38;;;11.20;94.00;;;;;;6228374;28;20149;-78
2022/04/07 02:25:27;;;;;;;2.22;0.63;;;11.20;94.10;;;;;;6230599;28;20045;-78
2022/04/07 02:28:32;;;;;;;0.40;0.30;;;11.20;94.20;;;;;;6230285;28;20077;-77
2022/04/07 02:31:33;;;;;;;0.95;0.40;;;11.10;94.00;;;;;;6229653;28;20057;-77
2022/04/07 02:34:36;;;;;;;2.10;0.30;;;11.10;93.80;;;;;;6229461;28;20041;-79
2022/04/07 02:37:37;;;;;;;1.02;0.50;;;11.20;93.70;;;;;;6228837;28;20046;-79
2022/04/07 02:40:41;;;;;;;2.53;0.22;;;11.10;93.20;;;;;;6228182;28;20062;-79
2022/04/07 02:43:42;;;;;;;0.65;0.35;;;11.20;92.70;;;;;;6229465;28;20050;-80
2022/04/07 02:46:44;;;;;;;3.42;0.77;;;11.30;92.50;;;;;;6229188;28;20056;-79
2022/04/07 02:49:47;;;;;;;1.52;0.35;;;11.40;92.10;;;;;;6228682;28;20518;-77
2022/04/07 02:52:48;;;;;;;1.02;0.30;;;11.40;91.70;;;;;;6229586;28;20054;-79
2022/04/07 02:55:51;;;;;;;1.10;0.20;;;11.50;91.60;;;;;;6230302;28;20061;-78
2022/04/07 02:58:53;;;;;;;1.27;0.10;;;11.50;91.20;;;;;;6229419;28;20046;-80
2022/04/07 03:01:56;;;;;;;0.38;0.20;;;11.50;90.80;;;;;;6229219;28;20045;-78
2022/04/07 03:04:58;;;;;;;0.38;0.20;;;11.50;90.80;;;;;;6227811;28;20042;-78
2022/04/07 03:07:59;;;;;;;0.38;0.20;;;11.50;90.50;;;;;;6228173;28;20080;-79
2022/04/07 03:11:05;;;;;;;0.43;0.17;;;11.60;90.50;;;;;;6230535;28;20438;-80
2022/04/07 03:14:07;;;;;;;0.73;0.43;;;11.70;90.50;;;;;;6231089;28;20068;-78
2022/04/07 03:17:09;;;;;;;0.70;0.20;;;11.80;90.30;;;;;;6230241;28;20049;-80
2022/04/07 03:20:11;;;;;;;0.40;0.20;;;11.90;90.00;;;;;;6225293;28;20056;-79
2022/04/07 03:23:13;;;;;;;0.13;0.10;;;11.90;89.80;;;;;;6227297;28;20046;-79
2022/04/07 03:26:16;;;;;;;0.80;0.30;;;12.00;89.70;;;;;;6225640;28;20052;-80
2022/04/07 03:29:19;;;;;;;0.40;0.28;;;11.90;89.30;;;;;;6224477;28;20046;-81
2022/04/07 03:32:21;;;;;;;0.22;0.20;;;11.90;89.20;;;;;;6225667;28;20484;-80
2022/04/07 03:35:23;;;;;;;0.30;0.10;;;11.90;89.20;;;;;;6225960;28;20096;-80
2022/04/07 03:38:25;;;;;;;1.42;0.40;;;11.90;89.10;;;;;;6225305;28;20108;-79
2022/04/07 03:41:29;;;;;;;0.30;0.17;;;11.80;89.00;;;;;;6227877;28;20133;-80
2022/04/07 03:44:30;;;;;;;5.80;0.52;;;11.80;89.30;;;;;;6224579;28;20053;-78
2022/04/07 03:47:32;;;;;;;0.30;0.20;;;11.90;89.70;;;;;;6224825;28;20068;-80
2022/04/07 03:50:34;;;;;;;0.40;0.20;;;11.90;89.70;;;;;;6226681;28;20049;-80
2022/04/07 03:53:36;;;;;;;1.02;0.43;;;11.90;89.70;;;;;;6228146;28;20143;-80
2022/04/07 03:56:39;;;;;;;1.60;0.70;;;11.90;89.60;;;;;;6227990;28;20045;-80
2022/04/07 03:59:42;;;;;;;2.28;0.35;;;11.80;89.80;;;;;;6226313;28;20155;-80
2022/04/07 04:02:44;;;;;;;1.13;0.40;;;11.90;90.10;;;;;;6225617;28;20046;-80
2022/04/07 04:05:46;;;;;;;0.47;0.20;;;11.90;90.00;;;;;;6225399;28;20424;-80
2022/04/07 04:08:47;;;;;;;1.20;0.43;;;11.90;90.00;;;;;;6226435;28;20042;-79
2022/04/07 04:11:51;;;;;;;4.32;0.50;;;11.90;90.10;;;;;;6229766;28;20118;-79
2022/04/07 04:14:54;;;;;;;0.60;0.40;;;11.90;90.10;;;;;;6229437;28;20045;-79
2022/04/07 04:17:56;;;;;;;0.55;0.30;;;11.90;90.00;;;;;;6226378;28;20093;-79
2022/04/07 04:20:58;;;;;;;0.28;0.20;;;11.90;90.00;;;;;;6229978;28;20565;-81
2022/04/07 04:23:59;;;;;;;2.53;0.52;;;11.90;90.10;;;;;;6229762;28;20132;-81
2022/04/07 04:27:03;;;;;;;0.80;0.20;;;11.90;90.20;;;;;;6229737;28;20065;-82
2022/04/07 04:30:06;;;;;;;1.20;0.40;;;11.90;90.10;;;;;;6228594;28;20060;-81
2022/04/07 04:33:08;;;;;;;0.77;0.35;;;12.00;90.00;;;;;;6229590;28;20064;-82
2022/04/07 04:36:10;;;;;;;3.38;0.70;;;11.90;90.00;;;;;;6230491;28;20651;-81
2022/04/07 04:39:12;;;;;;;2.13;1.15;;;11.90;90.10;;;;;;6226131;28;20050;-81
2022/04/07 04:42:15;;;;;;;6.68;0.80;;;12.00;90.10;;;;;;6226900;28;20049;-81
2022/04/07 04:45:17;;;;;;;0.98;0.30;;;12.00;90.10;;;;;;6228724;28;20130;-81
2022/04/07 04:48:19;;;;;;;0.73;0.32;;;11.90;90.10;;;;;;6229044;28;20050;-81
2022/04/07 04:51:21;;;;;;;1.27;0.50;;;11.90;90.20;;;;;;6227387;28;20041;-81
2022/04/07 04:54:23;;;;;;;1.05;0.40;;;11.80;90.30;;;;;;6228373;28;20049;-82
2022/04/07 04:57:26;;;;;;;3.33;0.63;;;11.90;90.30;;;;;;6230980;28;20054;-82
2022/04/07 05:00:28;;;;;;;0.85;0.20;;;11.90;90.30;;;;;;6227953;28;20061;-81
2022/04/07 05:03:29;;;;;;;2.03;0.30;;;11.80;90.30;;;;;;6228255;28;20507;-81
2022/04/07 05:06:31;;;;;;;2.50;0.20;;;11.80;90.30;;;;;;6229275;28;20176;-82
2022/04/07 05:09:34;;;;;;;0.60;0.40;;;11.70;90.40;;;;;;6228550;28;20137;-81
2022/04/07 05:12:37;;;;;;;0.65;0.20;;;11.70;90.50;;;;;;6229914;28;20121;-82
2022/04/07 05:15:39;;;;;;;4.22;0.57;;;11.70;90.50;;;;;;6230727;28;20050;-81
2022/04/07 05:18:41;;;;;;;0.45;0.30;;;11.80;90.40;;;;;;6228781;28;20052;-82
2022/04/07 05:21:44;;;;;;;0.32;0.20;;;11.80;90.30;;;;;;6229021;28;20052;-81
2022/04/07 05:24:45;;;;;;;4.65;0.45;;;11.90;90.30;;;;;;6229319;28;20449;-82
2022/04/07 05:27:49;;;;;;;1.27;0.20;;;11.90;90.30;;;;;;6231710;28;20141;-81
2022/04/07 05:30:50;;;;;;;0.93;0.30;;;12.00;90.10;;;;;;6226963;28;20052;-81
2022/04/07 05:33:52;;;;;;;1.02;0.28;;;12.20;89.70;;;;;;6228053;28;20057;-81
2022/04/07 05:36:54;;;;;;;2.45;0.28;;;12.30;89.20;;;;;;6227742;28;20042;-81
2022/04/07 05:39:56;;;;;;;0.75;0.43;;;12.40;88.90;;;;;;6229848;28;20430;-81
2022/04/07 05:43:00;;;;;;;0.40;0.20;;;12.50;88.30;;;;;;6232247;28;20073;-81
2022/04/07 05:46:02;;;;;;;0.75;0.22;;;12.60;88.70;;;;;;6231831;28;20042;-81
2022/04/07 05:49:04;;;;;;;0.20;0.20;;;12.60;87.60;;;;;;6231322;28;20046;-81
2022/04/07 05:52:06;;;;;;;0.52;0.20;;;12.70;87.40;;;;;;6232936;28;20060;-81
2022/04/07 05:55:08;;;;;;;0.17;0.10;;;12.50;87.80;;;;;;6232775;28;20512;-82
2022/04/07 05:58:13;;;;;;;0.65;0.10;;;12.60;88.10;;;;;;6233214;28;20050;-81
2022/04/07 06:01:17;;;;;;;0.77;0.30;;;12.60;88.00;;;;;;6232056;28;20475;-81
2022/04/07 06:04:19;;;;;;;0.10;0.10;;;12.70;88.00;;;;;;6226984;28;20411;-80
2022/04/07 06:07:21;;;;;;;1.02;0.17;;;12.60;88.70;;;;;;6206363;28;20125;-82
2022/04/07 06:10:27;;;;;;;1.02;0.30;;;12.50;90.20;;;;;;6207306;28;20066;-82
2022/04/07 06:13:30;;;;;;;0.40;0.10;;;12.30;91.00;;;;;;6212923;28;20054;-82
2022/04/07 06:16:31;;;;;;;0.55;0.25;;;12.10;91.70;;;;;;6232225;28;20053;-82
2022/04/07 06:19:33;;;;;;;0.10;0.08;;;12.00;92.30;;;;;;6232576;28;20129;-81
2022/04/07 06:22:35;;;;;;;0.77;0.10;;;11.90;92.30;;;;;;6232314;28;20049;-81
2022/04/07 06:25:37;;;;;;;0.47;0.10;;;11.90;92.50;;;;;;6231379;28;20128;-82
2022/04/07 06:28:42;;;;;;;1.33;0.20;;;11.90;92.40;;;;;;6231385;28;20050;-81
2022/04/07 06:31:44;;;;;;;0.22;0.10;;;11.90;92.50;;;;;;6217179;28;20171;-81
2022/04/07 06:34:46;;;;;;;0.65;0.20;;;11.90;92.40;;;;;;6230933;28;20427;-82
2022/04/07 06:37:52;;;;;;;1.17;0.20;;;12.00;92.40;;;;;;6230381;28;20070;-81
2022/04/07 06:40:53;;;;;;;0.20;0.05;;;11.90;92.20;;;;;;6231253;28;20061;-82
2022/04/07 06:43:56;;;;;;;1.50;0.30;;;12.00;92.00;;;;;;6231441;28;20060;-82
2022/04/07 06:46:58;;;;;;;1.30;0.08;;;12.10;91.90;;;;;;6232685;28;20052;-82
2022/04/07 06:50:00;;;;;;;0.85;0.15;;;12.10;91.80;;;;;;6234469;28;20053;-81
2022/04/07 06:53:01;;;;;;;0.73;0.10;;;12.10;92.00;;;;;;6234436;28;20104;-81
2022/04/07 06:56:04;;;;;;;0.15;0.00;;;12.00;92.10;;;;;;6238108;28;20046;-82
2022/04/07 06:59:07;;;;;;;0.90;0.13;;;11.90;92.30;;;;;;6234923;28;20057;-82
2022/04/07 07:02:08;;;;;;;0.22;0.10;;;12.00;92.60;;;;;;6237287;28;20511;-81
2022/04/07 07:05:10;;;;;;;1.40;0.15;;;12.00;92.90;;;;;;6231003;28;20065;-81
2022/04/07 07:08:16;;;;;;;2.00;0.52;;;11.90;93.60;;;;;;6224141;28;20061;-81
2022/04/07 07:11:18;;;;;;;0.50;0.30;;;11.80;93.60;;;;;;6197493;28;20133;-85
2022/04/07 07:14:21;;;;;;;2.30;0.15;;;11.60;94.30;;;;;;6232489;28;20056;-81
2022/04/07 07:17:22;;;;;;;1.30;0.30;;;11.50;94.90;;;;;;6223199;28;20416;-83
2022/04/07 07:20:24;;;;;;;0.45;0.20;;;11.70;95.20;;;;;;6234054;28;20057;-84
2022/04/07 07:23:26;;;;;;;2.47;0.30;;;11.60;95.20;;;;;;6235193;28;20050;-81
2022/04/07 07:26:28;;;;;;;1.95;0.30;;;11.60;95.10;;;;;;6231809;28;20046;-84
2022/04/07 07:29:31;;;;;;;3.85;0.22;;;11.60;95.20;;;;;;6230164;28;20458;-82
2022/04/07 07:32:37;;;;;;;3.17;1.17;;;11.50;94.90;;;;;;6214229;28;20077;-82
2022/04/07 07:35:39;;;;;;;1.38;0.40;;;11.50;95.30;;;;;;6217358;28;20125;-81
2022/04/07 07:38:41;;;;;;;2.30;0.30;;;11.50;95.10;;;;;;6229761;28;20046;-82
2022/04/07 07:41:43;;;;;;;3.03;0.30;;;11.50;94.80;;;;;;6231232;28;20104;-81
2022/04/07 07:44:46;;;;;;;3.28;0.13;;;11.60;94.60;;;;;;6230106;28;20201;-82
2022/04/07 07:47:48;;;;;;;0.65;0.13;;;11.70;94.20;;;;;;6229528;28;20077;-83
2022/04/07 07:50:49;;;;;;;0.38;0.10;;;12.00;94.20;;;;;;6228061;28;20569;-80
2022/04/07 07:53:51;;;;;;;0.20;0.20;;;12.10;93.30;;;;;;6229379;28;20454;-81
2022/04/07 07:56:54;;;;;;;3.88;0.30;;;12.30;92.40;;;;;;6209983;28;20523;-81
2022/04/07 08:00:16;;;;;;;3.63;0.40;;;12.40;91.90;;;;;;6204115;28;20057;-81
2022/04/07 08:03:18;;;;;;;3.05;0.30;;;12.40;92.30;;;;;;6201103;28;20504;-81
2022/04/07 08:06:29;;;;;;;1.17;0.20;;;12.50;92.10;;;;;;6213424;28;20046;-81
2022/04/07 08:09:31;;;;;;;0.85;0.20;;;12.50;92.00;;;;;;6202946;28;20512;-79
2022/04/07 08:12:32;;;;;;;1.02;0.10;;;12.80;91.80;;;;;;6204267;28;20050;-82
2022/04/07 08:15:36;;;;;;;0.38;0.10;;;13.20;90.90;;;;;;6204560;28;20496;-80
2022/04/07 08:18:37;;;;;;;0.10;0.03;;;13.80;89.20;;;;;;6205040;28;20105;-80
2022/04/07 08:21:39;;;;;;;1.02;0.20;;;14.40;87.00;;;;;;6204137;28;20057;-80
2022/04/07 08:24:41;;;;;;;0.38;0.20;;;14.90;84.10;;;;;;6202682;28;20042;-80
2022/04/07 08:27:45;;;;;;;0.32;0.05;;;15.00;82.80;;;;;;6203821;28;20070;-80
2022/04/07 08:30:49;;;;;;;0.80;0.28;;;14.80;82.40;;;;;;6202420;28;20054;-81
2022/04/07 08:34:25;;;;;;;0.75;0.20;;;14.50;82.60;;;;;;6218926;28;20124;-81
2022/04/07 08:40:50;;;;;;;8.70;0.47;;;13.90;84.70;;;;;;6218484;28;20045;-81
2022/04/07 08:43:54;;;;;;;0.22;0.00;;;13.70;87.30;;;;;;6238644;28;20072;-81
2022/04/07 08:46:59;;;;;;;0.43;0.20;;;13.70;87.00;;;;;;6229253;28;20183;-81
2022/04/07 08:50:13;;;;;;;6.15;1.48;;;14.00;86.70;;;;;;6228427;28;20397;-81
2022/04/07 08:53:16;;;;;;;1.30;0.30;;;13.80;88.00;;;;;;6228906;28;20066;-81
2022/04/07 08:56:18;;;;;;;1.25;0.10;;;13.70;90.00;;;;;;6230540;28;20046;-81
2022/04/07 08:59:20;;;;;;;3.38;0.50;;;13.50;91.30;;;;;;6228322;28;20049;-82
2022/04/07 09:02:23;;;;;;;1.73;0.20;;;13.50;91.50;;;;;;6230819;28;20468;-83
2022/04/07 09:05:26;;;;;;;0.45;0.30;;;13.50;92.10;;;;;;6232601;28;20049;-83
2022/04/07 09:08:31;;;;;;;0.47;0.20;;;13.30;92.80;;;;;;6203998;28;20057;-83
2022/04/07 09:11:36;;;;;;;5.03;0.43;;;13.30;93.30;;;;;;6210325;28;20056;-82
2022/04/07 09:14:40;;;;;;;2.67;0.20;;;13.20;93.70;;;;;;6205841;28;20050;-82
2022/04/07 09:17:54;;;;;;;0.40;0.20;;;13.20;93.60;;;;;;6202658;28;20046;-82
2022/04/07 09:20:56;;;;;;;0.28;0.10;;;13.20;94.70;;;;;;6200993;28;20046;-81
2022/04/07 09:24:00;;;;;;;1.00;0.95;;;13.30;94.80;;;;;;6206605;28;20400;-82
2022/04/07 09:27:04;;;;;;;0.20;0.10;;;13.20;95.10;;;;;;6205951;28;20089;-81
2022/04/07 09:30:08;;;;;;;2.25;0.38;;;13.00;95.10;;;;;;6207911;28;20073;-82
2022/04/07 09:33:22;;;;;;;0.52;0.30;;;13.10;95.70;;;;;;6211230;28;20061;-81
2022/04/07 09:36:24;;;;;;;1.17;0.40;;;13.10;95.60;;;;;;6220115;28;20057;-82
2022/04/07 09:39:26;;;;;;;0.50;0.30;;;13.00;94.50;;;;;;6234736;28;20049;-82
2022/04/07 09:42:29;;;;;;;0.80;0.10;;;13.00;94.70;;;;;;6234170;28;20049;-81
2022/04/07 09:45:31;;;;;;;0.43;0.20;;;13.10;94.90;;;;;;6234420;28;20053;-81
2022/04/07 09:48:34;;;;;;;0.85;0.10;;;13.00;94.00;;;;;;6234047;28;20536;-81
2022/04/07 09:51:40;;;;;;;1.77;0.30;;;13.00;93.90;;;;;;6225419;28;20057;-81
2022/04/07 09:54:47;;;;;;;0.32;0.10;;;13.10;93.20;;;;;;6225040;28;20042;-81
2022/04/07 09:57:49;;;;;;;0.25;0.10;;;13.10;92.70;;;;;;6231224;28;20045;-81
2022/04/07 10:00:51;;;;;;;1.00;0.20;;;13.10;92.10;;;;;;6231230;28;20038;-81
2022/04/07 10:03:54;;;;;;;0.30;0.10;;;13.20;92.60;;;;;;6228068;28;20081;-81
2022/04/07 10:06:56;;;;;;;1.90;0.20;;;13.50;92.50;;;;;;6220781;28;20050;-81
2022/04/07 10:09:59;;;;;;;0.40;0.17;;;13.70;91.40;;;;;;6228356;28;20049;-82
2022/04/07 10:13:01;;;;;;;0.68;0.20;;;13.80;91.80;;;;;;6227381;28;20109;-81
2022/04/07 10:16:03;;;;;;;1.27;0.10;;;14.10;91.60;;;;;;6228421;28;20077;-81
2022/04/07 10:19:13;;;;;;;2.38;0.30;;;14.80;91.30;;;;;;6234938;28;20438;-82
2022/04/07 10:22:46;;;;;;;0.52;0.15;;;14.90;89.90;;;;;;6226657;28;20421;-81
2022/04/07 10:25:50;;;;;;;0.20;0.10;;;14.80;90.00;;;;;;6210756;28;20053;-81
2022/04/07 10:28:55;;;;;;;0.70;0.00;;;14.80;89.80;;;;;;6229342;28;20069;-81
2022/04/07 10:32:22;;;;;;;0.20;0.00;;;14.80;85.80;;;;;;6230036;28;20420;-82
2022/04/07 10:35:36;;;;;;;3.03;0.08;;;14.80;84.80;;;;;;6222322;28;20054;-81
2022/04/07 10:38:40;;;;;;;0.22;0.10;;;14.80;84.70;;;;;;6229617;28;20575;-81
2022/04/07 10:41:51;;;;;;;1.27;0.10;;;14.90;84.60;;;;;;6230931;28;20100;-82
2022/04/07 10:45:05;;;;;;;4.75;0.10;;;15.20;84.10;;;;;;6229448;28;20183;-81
2022/04/07 10:48:28;;;;;;;0.60;0.08;;;15.20;82.30;;;;;;6230516;28;20588;-81
2022/04/07 10:51:43;;;;;;;0.20;0.05;;;15.30;82.40;;;;;;6232536;28;20065;-81
2022/04/07 10:55:10;;;;;;;1.15;0.15;;;15.30;81.50;;;;;;6231606;28;20053;-82
2022/04/07 10:58:13;;;;;;;1.17;0.00;;;15.10;81.10;;;;;;6230887;28;20516;-82
2022/04/07 11:01:17;;;;;;;1.33;0.15;;;15.10;81.40;;;;;;6229926;28;20069;-81
2022/04/07 11:04:32;;;;;;;0.10;0.00;;;15.10;80.70;;;;;;6229678;28;20631;-81
2022/04/07 11:07:50;;;;;;;0.88;0.00;;;15.40;80.50;;;;;;6223154;28;20069;-81
2022/04/07 11:10:53;;;;;;;0.10;0.00;;;15.90;79.40;;;;;;6229181;28;20401;-82
2022/04/07 11:14:00;;;;;;;7.82;0.20;;;15.90;78.50;;;;;;6228013;28;20673;-82
2022/04/07 11:17:05;;;;;;;1.90;0.00;;;15.70;78.50;;;;;;6230820;28;20496;-82
2022/04/07 11:20:13;;;;;;;0.08;0.00;;;15.70;78.80;;;;;;6235907;28;20141;-82
2022/04/07 11:23:39;;;;;;;13.73;0.32;;;15.60;80.80;;;;;;6234300;28;20092;-82
2022/04/07 11:26:41;;;;;;;1.08;0.20;;;15.50;80.60;;;;;;6230529;28;20049;-82
2022/04/07 11:29:43;;;;;;;1.05;0.03;;;15.30;79.80;;;;;;6229289;28;20397;-82
2022/04/07 11:33:30;;;;;;;0.30;0.00;;;15.30;80.20;;;;;;6229999;28;20128;-80
2022/04/07 11:36:34;;;;;;;1.35;0.10;;;15.40;80.60;;;;;;6186932;28;20050;-84
2022/04/07 11:40:03;;;;;;;0.25;0.10;;;15.50;80.10;;;;;;6203878;28;20066;-82
2022/04/07 11:43:04;;;;;;;4.73;0.10;;;15.50;80.40;;;;;;6208792;28;20504;-82
2022/04/07 11:46:14;;;;;;;1.88;0.10;;;15.50;80.60;;;;;;6202877;28;20297;-82
2022/04/07 11:49:17;;;;;;;0.88;0.15;;;15.50;81.30;;;;;;6206674;28;20101;-82
2022/04/07 11:55:50;;;;;;;0.20;0.00;;;15.60;81.10;;;;;;6211271;28;20046;-83
2022/04/07 11:59:00;;;;;;;0.30;0.00;;;15.50;84.30;;;;;;6203487;28;20054;-81
2022/04/07 12:02:47;;;;;;;0.30;0.00;;;15.10;86.50;;;;;;6218737;28;20057;-81
2022/04/07 12:05:50;;;;;;;2.50;0.10;;;14.70;87.40;;;;;;6215257;28;20048;-80
2022/04/07 12:08:53;;;;;;;2.25;0.17;;;14.70;87.40;;;;;;6220444;28;20045;-81
2022/04/07 12:11:56;;;;;;;0.90;0.10;;;14.90;86.80;;;;;;6224907;28;20492;-78
2022/04/07 12:14:58;;;;;;;0.25;0.00;;;14.80;87.80;;;;;;6235302;28;20056;-80
2022/04/07 12:18:02;;;;;;;1.20;0.10;;;14.70;87.20;;;;;;6218477;28;20074;-82
2022/04/07 12:21:06;;;;;;;1.08;0.10;;;14.80;85.80;;;;;;6208578;28;20125;-81
2022/04/07 12:24:13;;;;;;;0.52;0.08;;;14.80;85.40;;;;;;6210181;28;20488;-80
2022/04/07 12:27:28;;;;;;;7.85;0.30;;;14.80;85.70;;;;;;6205388;28;20042;-81
2022/04/07 12:30:46;;;;;;;0.52;0.00;;;14.80;84.40;;;;;;6205164;28;20057;-81
2022/04/07 12:33:49;;;;;;;0.57;0.20;;;14.90;83.80;;;;;;6212214;28;20052;-82
2022/04/07 12:36:58;;;;;;;0.17;0.17;;;15.10;82.80;;;;;;6225675;28;20045;-82
2022/04/07 12:40:00;;;;;;;6.07;0.75;;;15.40;81.80;;;;;;6230835;28;20143;-83
2022/04/07 12:43:03;;;;;;;0.25;0.10;;;15.40;81.60;;;;;;6235644;28;20064;-83
2022/04/07 12:46:07;;;;;;;0.10;0.10;;;15.30;81.50;;;;;;6204715;28;20057;-80
2022/04/07 12:49:09;;;;;;;0.35;0.03;;;15.30;81.40;;;;;;6226775;28;20050;-81
2022/04/07 12:52:14;;;;;;;3.63;0.05;;;15.40;81.30;;;;;;6231135;28;20050;-82
2022/04/07 12:55:17;;;;;;;0.35;0.00;;;15.60;80.10;;;;;;6233084;28;20046;-83
2022/04/07 12:58:27;;;;;;;0.00;0.00;;;15.70;79.70;;;;;;6231862;28;20045;-83
2022/04/07 13:01:32;;;;;;;0.80;0.80;;;15.60;79.40;;;;;;6227812;28;20160;-84
2022/04/07 13:08:18;;;;;;;0.73;0.15;;;15.60;80.50;;;;;;6225861;28;20042;-83
2022/04/07 13:11:42;;;;;;;1.30;0.10;;;15.50;80.60;;;;;;6228118;28;20113;-83
2022/04/07 13:14:51;;;;;;;0.35;0.32;;;15.50;80.60;;;;;;6231564;28;20057;-83
2022/04/07 13:17:56;;;;;;;0.20;0.10;;;15.60;80.20;;;;;;6228845;28;20131;-83
2022/04/07 13:21:33;;;;;;;0.08;0.05;;;15.60;80.30;;;;;;6229114;28;20126;-84
2022/04/07 13:24:41;;;;;;;1.17;0.25;;;15.50;83.60;;;;;;6231235;28;20056;-83
2022/04/07 13:27:45;;;;;;;0.52;0.10;;;15.40;85.00;;;;;;6229831;28;20136;-80
2022/04/07 13:30:49;;;;;;;0.10;0.05;;;15.20;84.10;;;;;;6230811;28;20073;-82
2022/04/07 13:33:51;;;;;;;0.22;0.00;;;15.00;84.10;;;;;;6232392;28;20081;-80
2022/04/07 13:36:53;;;;;;;0.35;0.00;;;14.90;84.40;;;;;;6209811;28;20062;-81
2022/04/07 13:39:54;;;;;;;0.05;0.00;;;14.90;84.50;;;;;;6202495;28;20047;-81
2022/04/07 13:42:57;;;;;;;1.38;0.20;;;14.90;83.90;;;;;;6202496;28;20077;-82
2022/04/07 13:46:00;;;;;;;2.45;0.05;;;14.80;83.10;;;;;;6202417;28;20069;-82
2022/04/07 13:49:02;;;;;;;0.50;0.10;;;14.90;82.80;;;;;;6202736;28;20153;-81
2022/04/07 13:55:21;;;;;;;2.22;0.25;;;14.90;83.90;;;;;;6201264;28;20060;-81
2022/04/07 13:58:23;;;;;;;2.05;0.32;;;14.80;87.50;;;;;;6157022;28;20134;-81
2022/04/07 14:01:26;;;;;;;0.00;0.00;;;14.40;90.60;;;;;;6164554;28;20058;-83
2022/04/07 14:04:28;;;;;;;0.00;0.00;;;13.70;92.10;;;;;;6180921;28;20201;-81
2022/04/07 14:07:30;;;;;;;0.00;0.00;;;13.40;93.80;;;;;;6176560;28;20053;-80
2022/04/07 14:10:32;;;;;;;0.00;0.00;;;13.30;93.50;;;;;;6199101;28;20078;-83
2022/04/07 14:13:33;;;;;;;0.00;0.00;;;13.20;93.70;;;;;;6208164;28;20530;-81
2022/04/07 14:16:36;;;;;;;0.00;0.00;;;13.00;94.40;;;;;;6208924;28;20059;-80
2022/04/07 14:19:38;;;;;;;0.00;0.00;;;12.80;95.30;;;;;;6206979;28;20050;-81
2022/04/07 14:22:40;;;;;;;0.00;0.00;;;12.60;96.00;;;;;;6206531;28;20070;-80
2022/04/07 14:25:55;;;;;;;0.00;0.00;;;12.50;96.70;;;;;;6207262;28;20066;-81
2022/04/07 14:28:57;;;;;;;0.00;0.00;;;12.60;96.90;;;;;;6207833;28;20066;-82
2022/04/07 14:32:00;;;;;;;0.00;0.00;;;12.70;96.50;;;;;;6209636;28;20054;-81
2022/04/07 14:35:02;;;;;;;0.00;0.00;;;12.80;96.40;;;;;;6212268;28;20129;-80
2022/04/07 14:38:04;;;;;;;0.00;0.00;;;13.00;95.60;;;;;;6185010;28;20417;-81
2022/04/07 14:41:06;;;;;;;0.00;0.00;;;13.10;95.10;;;;;;6181263;28;20129;-80
2022/04/07 14:44:08;;;;;;;0.00;0.00;;;13.20;95.10;;;;;;6182330;28;20051;-80
2022/04/07 14:47:11;;;;;;;0.00;0.00;;;13.40;94.50;;;;;;6182040;28;20054;-80
2022/04/07 14:50:14;;;;;;;0.00;0.00;;;13.50;94.20;;;;;;6181224;28;20076;-80
2022/04/07 14:53:16;;;;;;;0.00;0.00;;;13.50;93.80;;;;;;6181643;28;20047;-80
2022/04/07 14:56:18;;;;;;;0.00;0.00;;;13.50;93.00;;;;;;6182274;28;20079;-80
2022/04/07 14:59:20;;;;;;;0.20;0.10;;;13.50;92.90;;;;;;6179710;28;20417;-80
2022/04/07 15:02:23;;;;;;;1.25;0.28;;;13.70;92.90;;;;;;6185862;28;20055;-79
2022/04/07 15:05:32;;;;;;;1.55;0.28;;;13.80;92.50;;;;;;6202057;28;20053;-80
2022/04/07 15:08:34;;;;;;;1.63;0.20;;;13.80;92.50;;;;;;6178101;28;20421;-78
2022/04/07 15:11:36;;;;;;;1.85;0.20;;;13.60;94.50;;;;;;6179205;28;20133;-78
2022/04/07 15:14:39;;;;;;;4.40;0.50;;;13.30;95.60;;;;;;6179154;28;20327;-78
2022/04/07 15:17:46;;;;;;;3.63;0.22;;;13.00;96.90;;;;;;6180153;28;20043;-79
2022/04/07 15:20:48;;;;;;;0.73;0.20;;;12.90;97.40;;;;;;6181663;28;20054;-78
2022/04/07 15:23:59;;;;;;;4.05;0.40;;;12.80;97.90;;;;;;6178999;28;20059;-78
2022/04/07 15:27:04;;;;;;;5.10;0.32;;;12.80;98.10;;;;;;6178291;28;20166;-80
2022/04/07 15:30:26;;;;;;;2.47;0.65;;;12.80;99.40;;;;;;6194175;28;20189;-79
2022/04/07 15:33:44;;;;;;;1.30;0.35;;;12.70;98.80;;;;;;6204893;28;20077;-79
2022/04/07 15:37:02;;;;;;;0.00;0.00;;;12.30;98.70;;;;;;6198784;28;20081;-79
2022/04/07 15:44:05;;;;;;;0.00;0.00;;;11.60;99.90;;;;;;6206211;28;20054;-79
2022/04/07 15:47:31;;;;;;;0.00;0.00;;;11.60;99.90;;;;;;6195306;28;20074;-79
2022/04/07 15:54:52;;;;;;;0.00;0.00;;;11.40;99.90;;;;;;6201366;23;20057;-79
2022/04/07 16:01:27;;;;;;;0.00;0.00;;;11.40;99.90;;;;;;6179350;28;20046;-80
2022/04/07 16:08:43;;;;;;;0.00;0.00;;;11.50;99.90;;;;;;6178494;28;20133;-78
2022/04/07 16:15:07;;;;;;;0.00;0.00;;;11.50;99.90;;;;;;6193458;23;20126;-78
2022/04/07 16:18:09;;;;;;;0.00;0.00;;;11.60;99.90;;;;;;6178007;28;20042;-79
2022/04/07 16:21:10;;;;;;;0.00;0.00;;;11.70;99.90;;;;;;6179203;28;20531;-78
2022/04/07 16:27:44;;;;;;;0.00;0.00;;;11.90;99.90;;;;;;6194713;28;20054;-79
2022/04/07 16:30:46;;;;;;;0.00;0.00;;;12.10;99.90;;;;;;6202846;28;20056;-78
2022/04/07 16:33:47;;;;;;;0.00;0.00;;;12.20;99.80;;;;;;6205653;28;20474;-78
2022/04/07 16:36:49;;;;;;;0.00;0.00;;;12.30;99.50;;;;;;6204818;28;20416;-75
2022/04/07 16:39:53;;;;;;;0.00;0.00;;;12.30;99.20;;;;;;6201604;28;20050;-76